Time;durP1;ratioP1;P1;durP2;ratioP2;P2;SDS_P1;SDS_P2;PMS_P1;PMS_P2;Temp;Humidity;BMP_temperature;BMP_pressure;BME280_temperature;BME280_humidity;BME280_pressure;Samples;Min_cycle;Max_cycle;Signal;HPM_P1;HPM_P2
2022/07/01 00:02:04;;;;;;;0.30;0.30;;;15.00;99.90;;;;;;5057177;28;20534;-69
2022/07/01 00:04:30;;;;;;;0.30;0.30;;;14.90;99.90;;;;;;5056848;28;20206;-69
2022/07/01 00:06:56;;;;;;;0.30;0.30;;;15.00;99.90;;;;;;5056863;28;20166;-69
2022/07/01 00:09:22;;;;;;;0.30;0.30;;;15.10;99.90;;;;;;5056531;28;20490;-69
2022/07/01 00:11:48;;;;;;;0.30;0.30;;;15.00;99.90;;;;;;5056682;28;20534;-69
2022/07/01 00:14:14;;;;;;;0.30;0.30;;;15.10;99.90;;;;;;5056903;28;20490;-69
2022/07/01 00:16:40;;;;;;;0.30;0.30;;;15.10;99.90;;;;;;5056603;28;20945;-69
2022/07/01 00:19:06;;;;;;;0.30;0.30;;;15.20;99.90;;;;;;5056567;28;20404;-69
2022/07/01 00:21:32;;;;;;;0.30;0.30;;;15.10;99.90;;;;;;5056793;28;20263;-70
2022/07/01 00:23:58;;;;;;;0.30;0.30;;;15.10;99.90;;;;;;5056366;28;20242;-69
2022/07/01 00:26:24;;;;;;;0.30;0.30;;;15.00;99.90;;;;;;5056580;28;20448;-69
2022/07/01 00:28:49;;;;;;;0.30;0.30;;;14.90;99.90;;;;;;5056310;28;20682;-69
2022/07/01 00:31:15;;;;;;;0.30;0.30;;;15.10;99.90;;;;;;5056485;28;20167;-69
2022/07/01 00:33:41;;;;;;;0.77;0.77;;;15.10;99.90;;;;;;5056595;28;20192;-70
2022/07/01 00:36:06;;;;;;;0.30;0.30;;;15.20;99.90;;;;;;5056231;28;20236;-69
2022/07/01 00:38:32;;;;;;;0.30;0.30;;;15.10;99.90;;;;;;5056222;28;20178;-69
2022/07/01 00:40:58;;;;;;;0.30;0.30;;;15.20;99.90;;;;;;5056253;28;20179;-69
2022/07/01 00:43:24;;;;;;;0.30;0.30;;;15.20;99.90;;;;;;5054831;28;20222;-70
2022/07/01 00:45:51;;;;;;;0.30;0.30;;;15.20;99.90;;;;;;5056046;28;20426;-70
2022/07/01 00:48:18;;;;;;;0.30;0.30;;;15.20;99.90;;;;;;5055959;28;20774;-69
2022/07/01 00:50:44;;;;;;;0.30;0.30;;;15.10;99.90;;;;;;5055920;28;20408;-69
2022/07/01 00:53:10;;;;;;;0.30;0.30;;;15.10;99.90;;;;;;5056131;28;20403;-70
2022/07/01 00:55:36;;;;;;;0.53;0.53;;;15.10;99.90;;;;;;5055355;28;20808;-70
2022/07/01 00:58:02;;;;;;;0.30;0.30;;;15.10;99.90;;;;;;5055684;28;20408;-69
2022/07/01 01:00:27;;;;;;;0.30;0.30;;;15.00;99.90;;;;;;5056040;28;20192;-70
2022/07/01 01:02:53;;;;;;;0.40;0.40;;;15.00;99.90;;;;;;5055825;28;20242;-69
2022/07/01 01:05:21;;;;;;;0.40;0.40;;;15.00;99.90;;;;;;5055822;28;20186;-70
2022/07/01 01:07:49;;;;;;;0.30;0.30;;;15.10;99.90;;;;;;5055783;28;20222;-69
2022/07/01 01:10:15;;;;;;;0.30;0.30;;;14.90;99.90;;;;;;5055417;28;20815;-69
2022/07/01 01:12:41;;;;;;;0.30;0.30;;;14.90;99.90;;;;;;5055620;28;20398;-70
2022/07/01 01:15:07;;;;;;;0.30;0.30;;;14.90;99.90;;;;;;5055588;28;20847;-69
2022/07/01 01:17:33;;;;;;;0.30;0.30;;;14.90;99.90;;;;;;5055794;28;20428;-70
2022/07/01 01:19:58;;;;;;;0.30;0.30;;;14.90;99.90;;;;;;5055451;28;20441;-70
2022/07/01 01:22:24;;;;;;;0.30;0.30;;;14.80;99.90;;;;;;5055507;28;20173;-69
2022/07/01 01:24:50;;;;;;;0.40;0.40;;;14.80;99.90;;;;;;5055480;28;20646;-70
2022/07/01 01:27:16;;;;;;;0.30;0.30;;;14.70;99.90;;;;;;5055581;28;20179;-69
2022/07/01 01:29:43;;;;;;;0.30;0.30;;;14.60;99.90;;;;;;5055401;28;20169;-69
2022/07/01 01:32:09;;;;;;;0.30;0.30;;;14.70;99.90;;;;;;5055364;28;20462;-69
2022/07/01 01:34:37;;;;;;;0.30;0.30;;;14.70;99.90;;;;;;5055368;28;20485;-69
2022/07/01 01:37:05;;;;;;;0.30;0.30;;;14.60;99.90;;;;;;5055194;28;20417;-69
2022/07/01 01:39:30;;;;;;;2.43;0.77;;;14.50;99.90;;;;;;5054891;28;20506;-69
2022/07/01 01:41:56;;;;;;;0.30;0.30;;;14.60;99.90;;;;;;5055059;28;20451;-69
2022/07/01 01:44:22;;;;;;;0.30;0.30;;;14.60;99.90;;;;;;5054953;28;20207;-69
2022/07/01 01:46:47;;;;;;;0.30;0.30;;;14.60;99.90;;;;;;5055071;28;20174;-69
2022/07/01 01:49:13;;;;;;;0.30;0.30;;;14.70;99.90;;;;;;5054834;28;20175;-69
2022/07/01 01:51:39;;;;;;;0.30;0.30;;;14.70;99.90;;;;;;5055101;28;20270;-70
2022/07/01 01:54:05;;;;;;;0.30;0.30;;;14.70;99.90;;;;;;5055236;28;20452;-69
2022/07/01 01:56:31;;;;;;;0.30;0.30;;;14.70;99.90;;;;;;5054728;28;20202;-69
2022/07/01 01:58:57;;;;;;;0.30;0.30;;;14.70;99.90;;;;;;5054960;28;20170;-70
2022/07/01 02:01:23;;;;;;;0.30;0.30;;;14.70;99.90;;;;;;5054731;28;20458;-68
2022/07/01 02:03:51;;;;;;;0.30;0.30;;;14.60;99.90;;;;;;5054673;28;20452;-68
2022/07/01 02:06:18;;;;;;;0.30;0.30;;;14.60;99.90;;;;;;5054657;28;20478;-69
2022/07/01 02:08:44;;;;;;;0.30;0.30;;;14.70;99.90;;;;;;5053443;28;20421;-69
2022/07/01 02:11:09;;;;;;;0.30;0.30;;;14.70;99.90;;;;;;5054486;28;20506;-70
2022/07/01 02:13:36;;;;;;;0.33;0.33;;;14.70;99.90;;;;;;5054534;28;20183;-69
2022/07/01 02:16:02;;;;;;;0.40;0.40;;;14.70;99.90;;;;;;5054353;28;20568;-69
2022/07/01 02:18:27;;;;;;;0.30;0.30;;;14.70;99.90;;;;;;5054120;28;20414;-69
2022/07/01 02:20:53;;;;;;;0.30;0.30;;;14.60;99.90;;;;;;5054449;28;20240;-69
2022/07/01 02:23:19;;;;;;;0.40;0.40;;;14.50;99.90;;;;;;5054276;28;20488;-69
2022/07/01 02:25:46;;;;;;;0.30;0.30;;;14.50;99.90;;;;;;5054129;28;20425;-69
2022/07/01 02:28:12;;;;;;;0.30;0.30;;;14.40;99.90;;;;;;5054062;28;20397;-69
2022/07/01 02:30:38;;;;;;;0.30;0.30;;;14.30;99.90;;;;;;5054463;28;20400;-69
2022/07/01 02:33:05;;;;;;;0.30;0.30;;;14.30;99.90;;;;;;5054279;28;20461;-70
2022/07/01 02:35:32;;;;;;;0.30;0.30;;;14.20;99.90;;;;;;5054164;28;20452;-69
2022/07/01 02:37:58;;;;;;;0.30;0.30;;;14.20;99.90;;;;;;5052577;28;20412;-69
2022/07/01 02:40:23;;;;;;;0.40;0.40;;;14.20;99.90;;;;;;5054014;28;20401;-69
2022/07/01 02:42:49;;;;;;;0.30;0.30;;;14.10;99.90;;;;;;5053948;28;20416;-68
2022/07/01 02:45:15;;;;;;;0.40;0.40;;;14.20;99.90;;;;;;5053839;28;20194;-70
2022/07/01 02:47:41;;;;;;;0.30;0.30;;;14.30;99.90;;;;;;5053882;28;20174;-69
2022/07/01 02:50:10;;;;;;;0.30;0.30;;;14.30;99.90;;;;;;5052534;28;20296;-70
2022/07/01 02:52:39;;;;;;;0.30;0.30;;;14.30;99.90;;;;;;5053761;28;20396;-70
2022/07/01 02:55:06;;;;;;;0.30;0.30;;;14.20;99.90;;;;;;5053857;28;20435;-69
2022/07/01 02:57:32;;;;;;;0.30;0.30;;;14.20;99.90;;;;;;5053887;28;20414;-69
2022/07/01 02:59:58;;;;;;;0.30;0.30;;;14.30;99.90;;;;;;5053657;28;20484;-69
2022/07/01 03:02:24;;;;;;;0.40;0.40;;;14.30;99.90;;;;;;5053871;28;20899;-69
2022/07/01 03:04:51;;;;;;;0.30;0.30;;;14.40;99.90;;;;;;5053512;28;20548;-69
2022/07/01 03:07:18;;;;;;;0.30;0.30;;;14.40;99.90;;;;;;5053595;28;20433;-68
2022/07/01 03:09:44;;;;;;;0.30;0.30;;;14.40;99.90;;;;;;5053437;28;20393;-70
2022/07/01 03:12:30;;;;;;;0.30;0.30;;;14.50;99.90;;;;;;5053636;28;20405;-70
2022/07/01 03:15:04;;;;;;;0.30;0.30;;;14.50;99.90;;;;;;5053537;28;20198;-70
2022/07/01 03:17:32;;;;;;;0.30;0.30;;;14.50;99.90;;;;;;5053701;28;20477;-69
2022/07/01 03:19:58;;;;;;;0.30;0.30;;;14.50;99.90;;;;;;5053118;28;20484;-70
2022/07/01 03:22:27;;;;;;;0.30;0.30;;;14.40;99.90;;;;;;5053314;28;20759;-69
2022/07/01 03:24:54;;;;;;;0.30;0.30;;;14.30;99.90;;;;;;5053374;28;21004;-70
2022/07/01 03:27:21;;;;;;;0.30;0.30;;;14.30;99.90;;;;;;5053370;28;20413;-70
2022/07/01 03:29:47;;;;;;;0.30;0.30;;;14.30;99.90;;;;;;5053162;28;20405;-70
2022/07/01 03:32:13;;;;;;;0.30;0.30;;;14.40;99.90;;;;;;5053297;28;20466;-69
2022/07/01 03:34:44;;;;;;;0.30;0.30;;;14.40;99.90;;;;;;5053153;28;20432;-70
2022/07/01 03:37:11;;;;;;;0.30;0.30;;;14.50;99.90;;;;;;5053412;28;20172;-69
2022/07/01 03:39:38;;;;;;;0.33;0.33;;;14.50;99.90;;;;;;5053036;28;20467;-69
2022/07/01 03:42:06;;;;;;;0.30;0.30;;;14.50;99.90;;;;;;5053423;28;20413;-69
2022/07/01 03:44:33;;;;;;;0.30;0.30;;;14.50;99.90;;;;;;5053209;28;20449;-69
2022/07/01 03:46:59;;;;;;;0.30;0.30;;;14.50;99.90;;;;;;5053180;28;20818;-70
2022/07/01 03:49:25;;;;;;;0.30;0.30;;;14.40;99.90;;;;;;5053043;28;20451;-69
2022/07/01 03:51:51;;;;;;;0.30;0.30;;;14.40;99.90;;;;;;5053246;28;20397;-69
2022/07/01 03:54:29;;;;;;;0.30;0.30;;;14.50;99.90;;;;;;5053159;28;20483;-69
2022/07/01 03:56:59;;;;;;;0.30;0.30;;;14.50;99.90;;;;;;5053087;28;20397;-69
2022/07/01 03:59:26;;;;;;;0.30;0.30;;;14.50;99.90;;;;;;5052910;28;20846;-69
2022/07/01 04:01:55;;;;;;;0.30;0.30;;;14.40;99.90;;;;;;5053119;28;20409;-70
2022/07/01 04:04:21;;;;;;;0.30;0.30;;;14.30;99.90;;;;;;5053048;28;20543;-70
2022/07/01 04:06:47;;;;;;;0.30;0.30;;;14.30;99.90;;;;;;5053018;28;20411;-70
2022/07/01 04:09:15;;;;;;;0.30;0.30;;;14.30;99.90;;;;;;5052753;28;20409;-69
2022/07/01 04:11:42;;;;;;;0.30;0.30;;;14.30;99.90;;;;;;5052921;28;20523;-69
2022/07/01 04:14:09;;;;;;;0.30;0.30;;;14.20;99.90;;;;;;5052967;28;20474;-70
2022/07/01 04:16:35;;;;;;;0.30;0.30;;;14.10;99.90;;;;;;5052807;28;20447;-69
2022/07/01 04:19:00;;;;;;;0.30;0.30;;;14.20;99.90;;;;;;5052731;28;20416;-70
2022/07/01 04:24:10;;;;;;;0.30;0.30;;;14.20;99.90;;;;;;5052722;28;20743;-69
2022/07/01 04:26:36;;;;;;;0.30;0.30;;;14.30;99.90;;;;;;5052711;28;20432;-69
2022/07/01 04:29:02;;;;;;;0.30;0.30;;;14.30;99.90;;;;;;5052727;28;20170;-70
2022/07/01 04:31:28;;;;;;;0.30;0.30;;;14.30;99.90;;;;;;5054905;28;20170;-69
2022/07/01 04:33:54;;;;;;;0.30;0.30;;;14.20;99.90;;;;;;5056570;28;20409;-68
2022/07/01 04:36:20;;;;;;;0.37;0.37;;;14.20;99.90;;;;;;5056240;28;20573;-70
2022/07/01 04:38:46;;;;;;;0.30;0.30;;;14.20;99.90;;;;;;5056431;28;20508;-69
2022/07/01 04:43:55;;;;;;;0.30;0.30;;;14.20;99.90;;;;;;5056389;28;20503;-69
2022/07/01 04:46:21;;;;;;;0.30;0.30;;;14.20;99.90;;;;;;5056051;28;20425;-70
2022/07/01 04:48:46;;;;;;;1.47;0.60;;;14.20;99.90;;;;;;5056031;28;20631;-69
2022/07/01 04:51:12;;;;;;;0.30;0.30;;;14.20;99.90;;;;;;5056006;28;20178;-70
2022/07/01 04:53:38;;;;;;;0.30;0.30;;;14.20;99.90;;;;;;5056069;28;20173;-69
2022/07/01 04:56:03;;;;;;;0.30;0.30;;;14.10;99.90;;;;;;5056057;28;20201;-70
2022/07/01 04:58:29;;;;;;;0.30;0.30;;;14.10;99.90;;;;;;5055902;28;20181;-70
2022/07/01 05:00:55;;;;;;;0.30;0.30;;;14.10;99.90;;;;;;5055878;28;20420;-69
2022/07/01 05:03:20;;;;;;;0.30;0.30;;;13.90;99.90;;;;;;5055920;28;20199;-69
2022/07/01 05:05:46;;;;;;;0.30;0.30;;;14.10;99.90;;;;;;5055708;28;20190;-69
2022/07/01 05:08:12;;;;;;;0.30;0.30;;;13.90;99.90;;;;;;5055817;28;20544;-68
2022/07/01 05:10:37;;;;;;;0.30;0.30;;;14.00;99.90;;;;;;5055928;28;20541;-69
2022/07/01 05:13:04;;;;;;;0.30;0.30;;;13.90;99.90;;;;;;5055745;28;20182;-69
2022/07/01 05:15:29;;;;;;;0.30;0.30;;;14.10;99.90;;;;;;5055630;28;20194;-69
2022/07/01 05:23:23;;;;;;;0.30;0.30;;;14.20;99.90;;;;;;5055402;28;20521;-70
2022/07/01 05:25:49;;;;;;;0.30;0.30;;;14.10;99.90;;;;;;5055489;28;20437;-70
2022/07/01 05:28:14;;;;;;;0.30;0.30;;;14.10;99.90;;;;;;5055221;28;20466;-69
2022/07/01 05:30:40;;;;;;;0.30;0.30;;;14.20;99.90;;;;;;5055379;28;20170;-69
2022/07/01 05:33:06;;;;;;;0.30;0.30;;;14.30;99.90;;;;;;5055292;28;20182;-69
2022/07/01 05:35:32;;;;;;;0.30;0.30;;;14.40;99.90;;;;;;5055192;28;20642;-69
2022/07/01 05:37:58;;;;;;;0.30;0.30;;;14.30;99.90;;;;;;5055126;28;20185;-69
2022/07/01 05:40:25;;;;;;;0.30;0.30;;;14.30;99.90;;;;;;5055189;28;20166;-69
2022/07/01 05:42:51;;;;;;;0.30;0.30;;;14.40;99.90;;;;;;5053960;28;20412;-69
2022/07/01 05:45:17;;;;;;;0.30;0.30;;;14.20;99.90;;;;;;5055064;28;20905;-69
2022/07/01 05:47:43;;;;;;;0.30;0.30;;;14.30;99.90;;;;;;5055418;28;20872;-69
2022/07/01 05:50:09;;;;;;;0.30;0.30;;;14.20;99.90;;;;;;5054850;28;20494;-69
2022/07/01 05:52:35;;;;;;;0.30;0.30;;;14.30;99.90;;;;;;5054897;28;20170;-69
2022/07/01 05:55:00;;;;;;;0.30;0.30;;;14.40;99.90;;;;;;5054960;28;20699;-68
2022/07/01 05:57:26;;;;;;;0.30;0.30;;;14.40;99.90;;;;;;5054815;28;20169;-69
2022/07/01 05:59:52;;;;;;;0.30;0.30;;;14.30;99.90;;;;;;5054621;28;20417;-69
2022/07/01 06:02:17;;;;;;;0.30;0.30;;;14.20;99.90;;;;;;5054948;28;20645;-70
2022/07/01 06:04:43;;;;;;;0.30;0.30;;;14.20;99.90;;;;;;5054721;28;20202;-70
2022/07/01 06:07:10;;;;;;;0.30;0.30;;;14.20;99.90;;;;;;5054745;28;20170;-69
2022/07/01 06:09:36;;;;;;;0.30;0.30;;;14.20;99.90;;;;;;5054586;28;20676;-68
2022/07/01 06:12:03;;;;;;;0.40;0.40;;;14.20;99.90;;;;;;5054511;28;20411;-70
2022/07/01 06:14:28;;;;;;;0.30;0.30;;;14.30;99.90;;;;;;5054553;28;20422;-69
2022/07/01 06:16:54;;;;;;;0.30;0.30;;;14.30;99.90;;;;;;5054679;28;20409;-69
2022/07/01 06:19:20;;;;;;;0.30;0.30;;;14.40;99.90;;;;;;5054305;28;20174;-69
2022/07/01 06:21:46;;;;;;;0.30;0.30;;;14.40;99.90;;;;;;5054701;28;20182;-69
2022/07/01 06:24:12;;;;;;;0.30;0.30;;;14.40;99.90;;;;;;5054353;28;20460;-69
2022/07/01 06:26:37;;;;;;;0.30;0.30;;;14.40;99.90;;;;;;5054208;28;20433;-68
2022/07/01 06:29:03;;;;;;;0.30;0.30;;;14.40;99.90;;;;;;5054097;28;20545;-70
2022/07/01 06:31:28;;;;;;;0.30;0.30;;;14.50;99.90;;;;;;5054257;28;20533;-70
2022/07/01 06:33:55;;;;;;;0.30;0.30;;;14.40;99.90;;;;;;5054164;28;20183;-69
2022/07/01 06:36:21;;;;;;;0.30;0.30;;;14.30;99.90;;;;;;5054058;28;20189;-70
2022/07/01 06:38:47;;;;;;;0.40;0.40;;;14.20;99.90;;;;;;5053968;28;20898;-69
2022/07/01 06:41:27;;;;;;;0.30;0.30;;;14.20;99.90;;;;;;5054155;28;20450;-70
2022/07/01 06:44:00;;;;;;;0.30;0.30;;;14.20;99.90;;;;;;5054550;28;20962;-69
2022/07/01 06:46:27;;;;;;;0.30;0.30;;;14.20;99.90;;;;;;5054047;28;20448;-69
2022/07/01 06:48:53;;;;;;;0.30;0.30;;;14.40;99.90;;;;;;5053819;28;20462;-69
2022/07/01 06:51:19;;;;;;;0.30;0.30;;;14.50;99.90;;;;;;5053975;28;20884;-69
2022/07/01 06:53:46;;;;;;;0.30;0.30;;;14.60;99.90;;;;;;5053479;28;20464;-69
2022/07/01 06:56:12;;;;;;;0.30;0.30;;;14.70;99.90;;;;;;5053709;28;20194;-69
2022/07/01 06:58:39;;;;;;;0.30;0.30;;;14.70;99.90;;;;;;5053851;28;20401;-69
2022/07/01 07:01:05;;;;;;;0.30;0.30;;;14.70;99.90;;;;;;5053726;28;20409;-69
2022/07/01 07:03:32;;;;;;;0.40;0.40;;;14.60;99.90;;;;;;5053652;28;20493;-70
2022/07/01 07:06:00;;;;;;;0.30;0.30;;;14.60;99.90;;;;;;5053509;28;20203;-69
2022/07/01 07:08:26;;;;;;;0.30;0.30;;;14.40;99.90;;;;;;5053576;28;20417;-70
2022/07/01 07:10:52;;;;;;;0.30;0.30;;;14.40;99.90;;;;;;5053732;28;20408;-69
2022/07/01 07:13:17;;;;;;;0.30;0.30;;;14.40;99.90;;;;;;5053506;28;20412;-69
2022/07/01 07:15:43;;;;;;;0.30;0.30;;;14.50;99.90;;;;;;5053713;28;20197;-69
2022/07/01 07:18:09;;;;;;;0.30;0.30;;;14.50;99.90;;;;;;5053377;28;20186;-69
2022/07/01 07:20:34;;;;;;;0.30;0.30;;;14.60;99.90;;;;;;5053649;28;20193;-70
2022/07/01 07:23:00;;;;;;;0.40;0.40;;;14.60;99.90;;;;;;5053142;28;20240;-70
2022/07/01 07:25:26;;;;;;;0.30;0.30;;;14.60;99.90;;;;;;5053287;28;20280;-69
2022/07/01 07:27:51;;;;;;;0.30;0.30;;;14.60;99.90;;;;;;5053417;28;20205;-69
2022/07/01 07:30:18;;;;;;;0.30;0.30;;;14.40;99.90;;;;;;5053240;28;20168;-69
2022/07/01 07:32:44;;;;;;;0.30;0.30;;;14.40;99.90;;;;;;5053452;28;20177;-69
2022/07/01 07:35:10;;;;;;;0.30;0.30;;;14.40;99.90;;;;;;5053286;28;20777;-69
2022/07/01 07:37:36;;;;;;;0.30;0.30;;;14.40;99.90;;;;;;5053213;28;20408;-68
2022/07/01 07:40:03;;;;;;;0.30;0.30;;;14.30;99.90;;;;;;5053087;28;20412;-69
2022/07/01 07:42:29;;;;;;;0.30;0.30;;;14.30;99.90;;;;;;5053237;28;20776;-69
2022/07/01 07:44:56;;;;;;;0.30;0.30;;;14.30;99.90;;;;;;5053181;28;20511;-70
2022/07/01 07:47:21;;;;;;;0.30;0.30;;;14.30;99.90;;;;;;5053224;28;20404;-70
2022/07/01 07:49:47;;;;;;;0.30;0.30;;;14.40;99.90;;;;;;5053176;28;20846;-70
2022/07/01 07:52:13;;;;;;;0.30;0.30;;;14.50;99.90;;;;;;5053353;28;20249;-69
2022/07/01 07:54:39;;;;;;;0.30;0.30;;;14.60;99.90;;;;;;5053114;28;20196;-70
2022/07/01 07:57:05;;;;;;;0.30;0.30;;;14.60;99.90;;;;;;5053102;28;20419;-69
2022/07/01 07:59:31;;;;;;;0.40;0.40;;;14.70;99.90;;;;;;5053033;28;20174;-70
2022/07/01 08:01:56;;;;;;;0.30;0.30;;;14.80;99.90;;;;;;5053172;28;20397;-69
2022/07/01 08:04:22;;;;;;;0.30;0.30;;;14.90;99.90;;;;;;5052937;28;20677;-69
2022/07/01 08:06:48;;;;;;;0.33;0.33;;;14.90;99.90;;;;;;5055629;28;20220;-69
2022/07/01 08:09:13;;;;;;;1.10;1.03;;;15.00;99.90;;;;;;5056821;28;20201;-69
2022/07/01 08:11:39;;;;;;;0.30;0.30;;;14.90;99.90;;;;;;5056857;28;20180;-70
2022/07/01 08:14:05;;;;;;;0.30;0.30;;;15.00;99.90;;;;;;5056920;28;20178;-69
2022/07/01 08:16:31;;;;;;;0.30;0.30;;;15.10;99.90;;;;;;5056796;28;20190;-69
2022/07/01 08:18:56;;;;;;;0.30;0.30;;;15.20;99.90;;;;;;5056597;28;20196;-70
2022/07/01 08:21:22;;;;;;;0.30;0.30;;;15.50;99.90;;;;;;5056801;28;20183;-69
2022/07/01 08:23:48;;;;;;;0.30;0.30;;;15.70;99.90;;;;;;5056376;28;20455;-69
2022/07/01 08:26:15;;;;;;;0.30;0.30;;;15.90;99.90;;;;;;5056545;28;20685;-70
2022/07/01 08:28:41;;;;;;;0.30;0.30;;;16.10;99.90;;;;;;5056250;28;20169;-70
2022/07/01 08:31:07;;;;;;;0.30;0.30;;;16.20;99.90;;;;;;5056583;28;20404;-69
2022/07/01 08:33:33;;;;;;;0.30;0.30;;;16.20;99.90;;;;;;5056682;28;20407;-69
2022/07/01 08:35:58;;;;;;;0.30;0.30;;;16.30;99.90;;;;;;5056425;28;20791;-70
2022/07/01 08:38:24;;;;;;;0.30;0.30;;;16.30;99.90;;;;;;5056141;28;20610;-69
2022/07/01 08:40:50;;;;;;;0.40;0.40;;;16.50;99.90;;;;;;5056710;28;20174;-70
2022/07/01 08:43:16;;;;;;;0.30;0.30;;;16.70;99.90;;;;;;5056432;28;20297;-70
2022/07/01 08:45:42;;;;;;;0.30;0.30;;;16.70;99.90;;;;;;5056113;28;20186;-70
2022/07/01 08:48:08;;;;;;;0.40;0.40;;;16.50;99.90;;;;;;5056112;28;20166;-70
2022/07/01 08:50:38;;;;;;;0.30;0.30;;;16.30;99.90;;;;;;5056245;28;20403;-69
2022/07/01 08:53:04;;;;;;;0.30;0.30;;;16.30;99.90;;;;;;5056269;28;20401;-70
2022/07/01 08:55:31;;;;;;;0.30;0.30;;;16.20;99.90;;;;;;5055903;28;20435;-70
2022/07/01 08:57:57;;;;;;;0.30;0.30;;;16.30;99.90;;;;;;5055979;28;20423;-69
2022/07/01 09:00:30;;;;;;;0.30;0.30;;;16.30;99.90;;;;;;5056029;28;20399;-69
2022/07/01 09:02:58;;;;;;;0.30;0.30;;;16.40;99.90;;;;;;5055967;28;20404;-70
2022/07/01 09:05:26;;;;;;;0.30;0.30;;;16.70;99.90;;;;;;5056090;28;20437;-70
2022/07/01 09:08:04;;;;;;;0.30;0.30;;;16.60;99.80;;;;;;5055767;28;20482;-69
2022/07/01 09:10:33;;;;;;;0.30;0.30;;;17.10;99.80;;;;;;5056075;28;20393;-69
2022/07/01 09:13:08;;;;;;;0.30;0.30;;;17.90;99.90;;;;;;5055772;28;20899;-69
2022/07/01 09:15:36;;;;;;;0.30;0.30;;;18.90;99.90;;;;;;5055746;28;20418;-70
2022/07/01 09:18:09;;;;;;;0.30;0.30;;;20.10;98.80;;;;;;5055292;28;20398;-69
2022/07/01 09:20:37;;;;;;;0.30;0.30;;;21.60;94.10;;;;;;5055961;28;20400;-70
2022/07/01 09:23:04;;;;;;;0.30;0.30;;;22.40;92.40;;;;;;5055265;28;20457;-70
2022/07/01 09:25:32;;;;;;;0.30;0.30;;;22.40;93.10;;;;;;5055586;28;20435;-70
2022/07/01 09:28:05;;;;;;;0.40;0.40;;;22.10;88.80;;;;;;5055222;28;20976;-70
2022/07/01 09:30:32;;;;;;;0.30;0.30;;;21.60;91.40;;;;;;5055371;28;20407;-70
2022/07/01 09:33:24;;;;;;;0.30;0.30;;;21.10;91.10;;;;;;5055687;28;20417;-69
2022/07/01 09:35:50;;;;;;;0.30;0.30;;;20.60;92.80;;;;;;5055194;28;20445;-70
2022/07/01 09:38:18;;;;;;;0.30;0.30;;;20.30;93.30;;;;;;5055056;28;20409;-70
2022/07/01 09:40:57;;;;;;;0.30;0.30;;;19.80;94.40;;;;;;5055546;28;20404;-70
2022/07/01 09:43:28;;;;;;;0.30;0.30;;;19.70;94.60;;;;;;5055243;28;20440;-69
2022/07/01 09:46:00;;;;;;;0.30;0.30;;;19.70;95.20;;;;;;5054996;28;20497;-69
2022/07/01 09:48:42;;;;;;;0.30;0.30;;;19.80;93.40;;;;;;5055091;28;20407;-70
2022/07/01 09:51:09;;;;;;;0.30;0.30;;;19.80;93.20;;;;;;5055200;28;20430;-70
2022/07/01 09:53:35;;;;;;;0.30;0.30;;;19.90;93.70;;;;;;5055124;28;20409;-69
2022/07/01 09:56:01;;;;;;;0.30;0.30;;;19.70;94.90;;;;;;5054900;28;20427;-69
2022/07/01 09:58:27;;;;;;;0.30;0.30;;;19.10;93.90;;;;;;5054730;28;20834;-70
2022/07/01 10:00:53;;;;;;;0.30;0.30;;;18.80;94.60;;;;;;5054858;28;20446;-69
2022/07/01 10:03:20;;;;;;;0.30;0.30;;;18.80;95.50;;;;;;5054905;28;20273;-69
2022/07/01 10:05:50;;;;;;;0.40;0.40;;;18.90;94.10;;;;;;5055050;28;20441;-69
2022/07/01 10:08:46;;;;;;;0.30;0.30;;;19.10;94.90;;;;;;5054915;28;20762;-70
2022/07/01 10:11:34;;;;;;;0.30;0.30;;;19.60;94.00;;;;;;5054735;28;20400;-69
2022/07/01 10:14:03;;;;;;;0.30;0.30;;;19.80;92.10;;;;;;5054660;28;20877;-69
2022/07/01 10:16:30;;;;;;;0.30;0.30;;;19.50;92.60;;;;;;5054394;28;20932;-69
2022/07/01 10:18:56;;;;;;;0.30;0.30;;;19.00;94.00;;;;;;5054320;28;20399;-70
2022/07/01 10:21:30;;;;;;;0.30;0.30;;;18.70;94.70;;;;;;5054460;28;20401;-70
2022/07/01 10:24:12;;;;;;;0.30;0.30;;;18.70;97.90;;;;;;5054017;28;20466;-71
2022/07/01 10:26:38;;;;;;;0.30;0.30;;;19.00;97.40;;;;;;5054141;28;20427;-70
2022/07/01 10:29:06;;;;;;;0.30;0.30;;;19.00;94.20;;;;;;5053349;28;20418;-69
2022/07/01 10:31:37;;;;;;;0.30;0.30;;;19.20;94.50;;;;;;5054105;28;20165;-70
2022/07/01 10:34:04;;;;;;;0.30;0.30;;;19.50;94.10;;;;;;5054446;28;20404;-70
2022/07/01 10:36:32;;;;;;;0.30;0.30;;;19.50;94.30;;;;;;5054055;28;20481;-69
2022/07/01 10:39:06;;;;;;;0.30;0.30;;;19.50;92.50;;;;;;5053928;28;20882;-69
2022/07/01 10:41:35;;;;;;;0.30;0.30;;;19.50;92.20;;;;;;5054474;28;20549;-69
2022/07/01 10:44:12;;;;;;;0.30;0.30;;;19.50;93.80;;;;;;5054245;28;20450;-69
2022/07/01 10:46:46;;;;;;;0.30;0.30;;;19.40;94.50;;;;;;5053842;28;20423;-70
2022/07/01 10:49:17;;;;;;;0.30;0.30;;;19.20;94.30;;;;;;5053787;28;20395;-70
2022/07/01 10:52:03;;;;;;;0.30;0.30;;;19.00;94.60;;;;;;5052548;28;20766;-69
2022/07/01 10:54:39;;;;;;;0.30;0.30;;;19.00;94.60;;;;;;5053978;28;20552;-69
2022/07/01 10:57:19;;;;;;;0.30;0.30;;;19.30;97.00;;;;;;5053740;28;20499;-69
2022/07/01 11:00:00;;;;;;;0.30;0.30;;;20.20;94.90;;;;;;5053523;28;20483;-70
2022/07/01 11:02:37;;;;;;;0.30;0.30;;;20.90;93.80;;;;;;5053937;28;20458;-70
2022/07/01 11:05:06;;;;;;;0.30;0.30;;;21.00;91.60;;;;;;5053584;28;20988;-70
2022/07/01 11:07:35;;;;;;;0.30;0.30;;;20.70;93.10;;;;;;5053586;28;20775;-70
2022/07/01 11:10:02;;;;;;;0.30;0.30;;;20.70;91.80;;;;;;5053587;28;20483;-70
2022/07/01 11:12:29;;;;;;;0.30;0.30;;;20.70;92.10;;;;;;5053669;28;20924;-70
2022/07/01 11:15:01;;;;;;;0.30;0.30;;;20.50;92.10;;;;;;5053388;28;20428;-69
2022/07/01 11:17:28;;;;;;;0.30;0.30;;;20.30;93.10;;;;;;5053797;28;20738;-70
2022/07/01 11:19:59;;;;;;;0.30;0.30;;;20.30;92.60;;;;;;5053341;28;20424;-70
2022/07/01 11:22:27;;;;;;;0.30;0.30;;;20.30;94.00;;;;;;5053511;28;20479;-69
2022/07/01 11:24:54;;;;;;;0.30;0.30;;;20.00;93.00;;;;;;5053460;28;21063;-69
2022/07/01 11:27:24;;;;;;;0.30;0.30;;;19.90;92.90;;;;;;5053739;28;20409;-70
2022/07/01 11:29:54;;;;;;;0.30;0.30;;;20.10;95.00;;;;;;5053278;28;20400;-70
2022/07/01 11:32:27;;;;;;;0.30;0.30;;;20.40;92.00;;;;;;5053672;28;20398;-71
2022/07/01 11:34:53;;;;;;;0.30;0.30;;;20.90;92.40;;;;;;5053474;28;20828;-70
2022/07/01 11:40:08;;;;;;;0.30;0.30;;;21.10;89.00;;;;;;5055073;28;20489;-70
2022/07/01 11:42:34;;;;;;;0.30;0.30;;;21.10;88.90;;;;;;5057603;28;20410;-70
2022/07/01 11:45:00;;;;;;;0.30;0.30;;;21.10;86.60;;;;;;5057408;28;20459;-69
2022/07/01 11:47:26;;;;;;;0.30;0.30;;;20.30;90.60;;;;;;5057466;28;20825;-69
2022/07/01 11:49:53;;;;;;;0.30;0.30;;;19.70;92.00;;;;;;5057030;28;20419;-70
2022/07/01 11:52:20;;;;;;;0.30;0.30;;;19.30;93.30;;;;;;5057396;28;20431;-70
2022/07/01 11:54:51;;;;;;;0.30;0.30;;;19.30;93.50;;;;;;5057154;28;20823;-70
2022/07/01 11:57:19;;;;;;;0.30;0.30;;;19.30;93.50;;;;;;5057150;28;20453;-70
2022/07/01 11:59:47;;;;;;;0.30;0.30;;;19.30;94.00;;;;;;5056944;28;20406;-69
2022/07/01 12:02:14;;;;;;;0.30;0.30;;;19.50;93.30;;;;;;5057159;28;20470;-69
2022/07/01 12:04:41;;;;;;;0.30;0.30;;;19.80;92.60;;;;;;5057261;28;20455;-70
2022/07/01 12:07:08;;;;;;;0.30;0.30;;;19.70;92.00;;;;;;5057132;28;20432;-70
2022/07/01 12:09:34;;;;;;;0.30;0.30;;;19.80;92.70;;;;;;5056870;28;20495;-70
2022/07/01 12:12:00;;;;;;;0.30;0.30;;;19.70;93.10;;;;;;5056990;28;20395;-70
2022/07/01 12:14:33;;;;;;;0.30;0.30;;;19.90;93.40;;;;;;5056976;28;20410;-70
2022/07/01 12:17:05;;;;;;;0.30;0.30;;;20.30;94.10;;;;;;5056992;28;20245;-70
2022/07/01 12:19:41;;;;;;;0.30;0.30;;;20.60;91.20;;;;;;5056657;28;20495;-69
2022/07/01 12:22:36;;;;;;;0.30;0.30;;;21.00;91.10;;;;;;5056737;28;20405;-69
2022/07/01 12:25:15;;;;;;;0.30;0.30;;;21.30;90.90;;;;;;5055864;28;20538;-70
2022/07/01 12:27:43;;;;;;;0.33;0.33;;;21.30;85.80;;;;;;5056809;28;20541;-69
2022/07/01 12:30:10;;;;;;;0.30;0.30;;;21.20;90.20;;;;;;5056374;28;20808;-70
2022/07/01 12:32:38;;;;;;;0.30;0.30;;;21.20;91.80;;;;;;5056511;28;20405;-70
2022/07/01 12:37:53;;;;;;;0.40;0.40;;;21.40;85.70;;;;;;5056598;28;20456;-70
2022/07/01 12:40:29;;;;;;;0.30;0.30;;;21.80;90.00;;;;;;5056417;28;20883;-70
2022/07/01 12:42:55;;;;;;;0.30;0.30;;;21.90;90.30;;;;;;5056666;28;20454;-70
2022/07/01 12:45:25;;;;;;;0.30;0.30;;;21.90;85.30;;;;;;5056069;28;20494;-70
2022/07/01 12:47:55;;;;;;;0.30;0.30;;;21.80;88.60;;;;;;5056181;28;20502;-69
2022/07/01 12:50:23;;;;;;;0.40;0.40;;;21.60;89.10;;;;;;5056334;28;20894;-69
2022/07/01 12:53:02;;;;;;;0.30;0.30;;;21.40;88.90;;;;;;5054153;28;20405;-71
2022/07/01 12:55:35;;;;;;;0.40;0.40;;;21.40;85.50;;;;;;5055997;28;20432;-69
2022/07/01 12:58:03;;;;;;;0.30;0.30;;;21.40;87.00;;;;;;5055830;28;20393;-70
2022/07/01 13:00:30;;;;;;;0.30;0.30;;;21.20;86.30;;;;;;5055808;28;20496;-70
2022/07/01 13:02:58;;;;;;;0.30;0.30;;;21.30;90.00;;;;;;5055833;28;20407;-69
2022/07/01 13:05:24;;;;;;;0.30;0.30;;;21.40;90.80;;;;;;5055678;28;20460;-70
2022/07/01 13:07:50;;;;;;;0.30;0.30;;;21.40;84.50;;;;;;5055910;28;20430;-70